THY5HR LTFM-LTCA
Flight info
| Callsign | THY5HR |
|---|---|
| Flight time | N/A |
| Altitude | 35000 |
| Route | VICEN UT57 VEVUD UT341 BAG UL614 BULUT |
| Aircraft | A320/M-SDE3FGHIRWY/LB1 |
Departure
| Time | 2026-04-30 22:23 |
|---|---|
| Airport | İstanbul Airport (LTFM) |
Arrival
| Time | N/A |
|---|---|
| Airport | Elazığ Airport (LTCA) |
| Time | Latitude | Longitude | Altitude | Speed | Heading |
|---|---|---|---|---|---|
| 2026-04-30 21:20 | 41.25743 | 28.74837 | 334 ft | 0 kts | 359° |
| 2026-04-30 22:10 | 41.25731 | 28.74837 | 330 ft | 4 kts | 354° |
| 2026-04-30 22:10 | 41.25704 | 28.74844 | 330 ft | 4 kts | 340° |
| 2026-04-30 22:11 | 41.25659 | 28.74881 | 331 ft | 4 kts | 315° |
| 2026-04-30 22:11 | 41.25641 | 28.74907 | 331 ft | 4 kts | 306° |
| 2026-04-30 22:11 | 41.25625 | 28.74937 | 329 ft | 4 kts | 306° |
| 2026-04-30 22:12 | 41.25608 | 28.74962 | 330 ft | 4 kts | 340° |
| 2026-04-30 22:12 | 41.25603 | 28.74965 | 329 ft | 1 kts | 359° |
| 2026-04-30 22:15 | 41.25613 | 28.74964 | 330 ft | 3 kts | 359° |
| 2026-04-30 22:15 | 41.25637 | 28.74971 | 331 ft | 4 kts | 28° |
| 2026-04-30 22:15 | 41.25645 | 28.75008 | 330 ft | 5 kts | 84° |
| 2026-04-30 22:16 | 41.25647 | 28.75064 | 333 ft | 7 kts | 89° |
| 2026-04-30 22:16 | 41.25648 | 28.75140 | 333 ft | 9 kts | 89° |
| 2026-04-30 22:17 | 41.25650 | 28.75354 | 334 ft | 7 kts | 89° |
| 2026-04-30 22:17 | 41.25679 | 28.75407 | 334 ft | 7 kts | 9° |
| 2026-04-30 22:17 | 41.25810 | 28.75402 | 333 ft | 11 kts | 359° |
| 2026-04-30 22:18 | 41.25895 | 28.75400 | 334 ft | 13 kts | 359° |
| 2026-04-30 22:18 | 41.26101 | 28.75396 | 333 ft | 16 kts | 358° |
| 2026-04-30 22:19 | 41.26249 | 28.75434 | 332 ft | 10 kts | 83° |
| 2026-04-30 22:19 | 41.26249 | 28.75529 | 334 ft | 0 kts | 89° |
| 2026-04-30 22:21 | 41.26249 | 28.75532 | 334 ft | 1 kts | 89° |
| 2026-04-30 22:21 | 41.26249 | 28.75553 | 334 ft | 3 kts | 89° |
| 2026-04-30 22:21 | 41.26250 | 28.75592 | 334 ft | 5 kts | 89° |
| 2026-04-30 22:21 | 41.26254 | 28.75650 | 331 ft | 6 kts | 62° |
| 2026-04-30 22:22 | 41.26298 | 28.75668 | 330 ft | 4 kts | 0° |
| 2026-04-30 22:22 | 41.26301 | 28.75668 | 331 ft | 1 kts | 0° |
| 2026-04-30 22:22 | 41.26304 | 28.75668 | 331 ft | 0 kts | 0° |
| 2026-04-30 22:22 | 41.26413 | 28.75668 | 333 ft | 50 kts | 359° |
| 2026-04-30 22:23 | 41.27042 | 28.75657 | 334 ft | 128 kts | 358° |
| 2026-04-30 22:23 | 41.28098 | 28.75631 | 664 ft | 161 kts | 1° |
| 2026-04-30 22:23 | 41.29240 | 28.75613 | 1555 ft | 169 kts | 5° |
| 2026-04-30 22:23 | 41.30394 | 28.76078 | 2137 ft | 181 kts | 33° |
| 2026-04-30 22:24 | 41.31498 | 28.77003 | 2557 ft | 197 kts | 33° |
| 2026-04-30 22:24 | 41.32709 | 28.78027 | 3009 ft | 215 kts | 33° |
| 2026-04-30 22:24 | 41.34030 | 28.79119 | 3556 ft | 232 kts | 32° |
| 2026-04-30 22:24 | 41.35461 | 28.80270 | 4172 ft | 247 kts | 31° |
| 2026-04-30 22:25 | 41.36944 | 28.81462 | 5012 ft | 251 kts | 35° |
| 2026-04-30 22:25 | 41.38090 | 28.83212 | 5808 ft | 258 kts | 65° |
| 2026-04-30 22:25 | 41.38419 | 28.85593 | 6518 ft | 269 kts | 88° |
| 2026-04-30 22:25 | 41.38443 | 28.88144 | 7115 ft | 281 kts | 90° |
| 2026-04-30 22:26 | 41.37065 | 28.92942 | 8369 ft | 287 kts | 140° |
| 2026-04-30 22:26 | 41.35403 | 28.94347 | 9147 ft | 282 kts | 165° |
| 2026-04-30 22:26 | 41.33494 | 28.94762 | 9905 ft | 278 kts | 184° |
| 2026-04-30 22:27 | 41.31547 | 28.94791 | 10547 ft | 284 kts | 184° |
| 2026-04-30 22:27 | 41.29516 | 28.94815 | 10904 ft | 300 kts | 184° |
| 2026-04-30 22:27 | 41.25114 | 28.94857 | 11557 ft | 330 kts | 185° |
| 2026-04-30 22:28 | 41.20490 | 28.94551 | 12817 ft | 335 kts | 188° |
| 2026-04-30 22:28 | 41.18186 | 28.94304 | 13494 ft | 338 kts | 189° |
| 2026-04-30 22:29 | 41.11066 | 28.93546 | 15216 ft | 347 kts | 188° |
| 2026-04-30 22:29 | 41.08640 | 28.93310 | 15748 ft | 351 kts | 188° |
| 2026-04-30 22:30 | 40.99206 | 28.96363 | 17807 ft | 388 kts | 144° |
| 2026-04-30 22:31 | 40.93278 | 29.04037 | 19239 ft | 403 kts | 140° |
| 2026-04-30 22:32 | 40.87201 | 29.11925 | 20742 ft | 414 kts | 137° |
| 2026-04-30 22:32 | 40.83996 | 29.18357 | 21693 ft | 429 kts | 115° |
| 2026-04-30 22:33 | 40.81574 | 29.29932 | 23033 ft | 441 kts | 107° |
| 2026-04-30 22:33 | 40.80005 | 29.37811 | 23876 ft | 447 kts | 107° |
| 2026-04-30 22:34 | 40.77597 | 29.49803 | 24961 ft | 454 kts | 107° |
| 2026-04-30 22:35 | 40.75967 | 29.57900 | 25633 ft | 459 kts | 107° |
| 2026-04-30 22:36 | 40.73368 | 29.74507 | 26939 ft | 469 kts | 91° |
| 2026-04-30 22:36 | 40.73312 | 29.78703 | 27242 ft | 472 kts | 91° |
| 2026-04-30 22:37 | 40.73069 | 29.91775 | 28182 ft | 479 kts | 91° |
| 2026-04-30 22:37 | 40.72980 | 29.96168 | 28492 ft | 481 kts | 92° |
| 2026-04-30 22:37 | 40.72667 | 30.05013 | 29094 ft | 485 kts | 99° |
| 2026-04-30 22:38 | 40.70948 | 30.13568 | 29877 ft | 482 kts | 111° |
| 2026-04-30 22:38 | 40.68731 | 30.21902 | 30642 ft | 481 kts | 111° |
| 2026-04-30 22:39 | 40.67620 | 30.26051 | 30996 ft | 480 kts | 112° |
| 2026-04-30 22:39 | 40.62455 | 30.37089 | 32100 ft | 471 kts | 131° |
| 2026-04-30 22:40 | 40.56446 | 30.47302 | 33187 ft | 470 kts | 130° |
| 2026-04-30 22:41 | 40.52263 | 30.58906 | 34279 ft | 473 kts | 104° |
| 2026-04-30 22:41 | 40.50774 | 30.67334 | 34794 ft | 473 kts | 104° |
| 2026-04-30 22:42 | 40.47337 | 30.84163 | 35073 ft | 485 kts | 109° |
| 2026-04-30 22:43 | 40.45216 | 30.92561 | 35064 ft | 485 kts | 109° |
| 2026-04-30 22:44 | 40.41130 | 31.09430 | 35047 ft | 485 kts | 108° |
| 2026-04-30 22:45 | 40.36008 | 31.35061 | 35035 ft | 485 kts | 102° |
| 2026-04-30 22:47 | 40.31769 | 31.60974 | 35012 ft | 484 kts | 102° |
| 2026-04-30 22:48 | 40.28916 | 31.78218 | 35006 ft | 484 kts | 103° |
| 2026-04-30 22:49 | 40.24118 | 32.03938 | 34999 ft | 484 kts | 107° |
| 2026-04-30 22:51 | 40.18446 | 32.29349 | 35003 ft | 485 kts | 106° |
| 2026-04-30 22:52 | 40.15673 | 32.42075 | 35008 ft | 485 kts | 107° |
| 2026-04-30 22:53 | 40.11971 | 32.58717 | 35003 ft | 485 kts | 107° |
| 2026-04-30 22:53 | 40.09144 | 32.71387 | 35009 ft | 484 kts | 107° |
| 2026-04-30 22:55 | 40.03890 | 32.92216 | 35010 ft | 483 kts | 113° |
| 2026-04-30 22:56 | 39.98884 | 33.08458 | 35006 ft | 482 kts | 112° |
| 2026-04-30 22:57 | 39.92875 | 33.28866 | 34997 ft | 482 kts | 112° |
| 2026-04-30 22:58 | 39.88025 | 33.45086 | 34998 ft | 482 kts | 112° |
| 2026-04-30 22:59 | 39.81473 | 33.69779 | 34988 ft | 482 kts | 105° |